Time;durP1;ratioP1;P1;durP2;ratioP2;P2;SDS_P1;SDS_P2;PMS_P1;PMS_P2;Temp;Humidity;BMP_temperature;BMP_pressure;BME280_temperature;BME280_humidity;BME280_pressure;Samples;Min_cycle;Max_cycle;Signal;HPM_P1;HPM_P2
2022/07/29 00:00:54;;;;;;;7.90;5.87;;;;;;;;;;5074233;28;20204;-68
2022/07/29 00:03:20;;;;;;;10.23;6.63;;;;;;;;;;5073529;28;20217;-67
2022/07/29 00:05:46;;;;;;;9.40;6.00;;;;;;;;;;5072547;28;20170;-68
2022/07/29 00:08:12;;;;;;;10.93;3.63;;;;;;;;;;5072581;28;20664;-68
2022/07/29 00:10:38;;;;;;;6.03;2.83;;;;;;;;;;5073764;28;20304;-68
2022/07/29 00:13:04;;;;;;;5.43;2.50;;;;;;;;;;5072383;28;20673;-67
2022/07/29 00:15:30;;;;;;;13.63;2.33;;;;;;;;;;5074070;28;20185;-68
2022/07/29 00:17:56;;;;;;;3.33;1.97;;;;;;;;;;5072363;28;20192;-67
2022/07/29 00:20:22;;;;;;;4.40;2.30;;;;;;;;;;5072282;28;20216;-67
2022/07/29 00:22:48;;;;;;;3.70;1.70;;;;;;;;;;5072242;28;20238;-68
2022/07/29 00:25:14;;;;;;;4.83;1.87;;;;;;;;;;5072260;28;20200;-68
2022/07/29 00:27:40;;;;;;;3.23;1.90;;;;;;;;;;5073648;28;20608;-68
2022/07/29 00:30:06;;;;;;;4.03;1.90;;;;;;;;;;5072259;28;20185;-68
2022/07/29 00:32:33;;;;;;;3.00;2.00;;;;;;;;;;5072090;28;20264;-67
2022/07/29 00:37:43;;;;;;;2.63;1.73;;;;;;;;;;5073986;28;20219;-67
2022/07/29 00:40:09;;;;;;;5.03;2.43;;;;;;;;;;5073548;28;20615;-68
2022/07/29 00:42:45;;;;;;;3.97;2.00;;;;;;;;;;5073272;28;20228;-67
2022/07/29 00:45:12;;;;;;;4.37;2.27;;;;;;;;;;5073342;28;20574;-67
2022/07/29 00:47:38;;;;;;;5.00;1.90;;;;;;;;;;5072100;28;20178;-67
2022/07/29 00:50:05;;;;;;;4.70;1.93;;;;;;;;;;5072110;28;20182;-67
2022/07/29 00:52:30;;;;;;;2.70;1.70;;;;;;;;;;5073273;28;20227;-68
2022/07/29 00:54:57;;;;;;;4.47;1.90;;;;;;;;;;5073302;28;20651;-67
2022/07/29 00:57:23;;;;;;;2.73;1.60;;;;;;;;;;5073547;28;20181;-67
2022/07/29 00:59:49;;;;;;;2.60;1.63;;;;;;;;;;5071839;28;20210;-67
2022/07/29 01:02:14;;;;;;;2.03;1.50;;;;;;;;;;5071875;28;20189;-68
2022/07/29 01:04:41;;;;;;;2.47;1.83;;;;;;;;;;5072926;28;20217;-67
2022/07/29 01:07:07;;;;;;;3.97;1.87;;;;;;;;;;5073350;28;20227;-67
2022/07/29 01:09:34;;;;;;;2.37;1.80;;;;;;;;;;5071813;28;20205;-67
2022/07/29 01:12:00;;;;;;;3.27;1.97;;;;;;;;;;5073088;28;20248;-67
2022/07/29 01:14:27;;;;;;;3.63;1.50;;;;;;;;;;5071683;28;20691;-68
2022/07/29 01:17:01;;;;;;;3.30;2.00;;;;;;;;;;5075623;28;20634;-67
2022/07/29 01:19:46;;;;;;;4.47;1.73;;;;;;;;;;5077159;28;20154;-67
2022/07/29 01:22:32;;;;;;;5.40;1.77;;;;;;;;;;5077114;28;20201;-67
2022/07/29 01:24:58;;;;;;;2.73;1.70;;;;;;;;;;5072087;28;20650;-67
2022/07/29 01:27:43;;;;;;;5.30;2.30;;;;;;;;;;5076979;28;20176;-66
2022/07/29 01:30:09;;;;;;;5.47;1.73;;;;;;;;;;5077378;28;20269;-67
2022/07/29 01:32:36;;;;;;;5.73;1.90;;;;;;;;;;5076727;28;20661;-66
2022/07/29 01:35:05;;;;;;;5.47;1.83;;;;;;;;;;5076934;28;20603;-67
2022/07/29 01:37:44;;;;;;;6.03;1.90;;;;;;;;;;5075428;28;20186;-67
2022/07/29 01:40:14;;;;;;;2.53;1.90;;;;;;;;;;5076627;28;20204;-67
2022/07/29 01:42:44;;;;;;;1.60;1.50;;;;;;;;;;5076782;28;20197;-67
2022/07/29 01:45:19;;;;;;;5.37;1.90;;;;;;;;;;5076508;28;20176;-68
2022/07/29 01:47:59;;;;;;;3.50;1.83;;;;;;;;;;5075122;28;20209;-67
2022/07/29 01:50:28;;;;;;;4.13;1.70;;;;;;;;;;5076568;28;20166;-67
2022/07/29 01:52:56;;;;;;;3.93;2.20;;;;;;;;;;5075061;28;20200;-67
2022/07/29 01:55:25;;;;;;;9.23;2.07;;;;;;;;;;5076568;28;20208;-68
2022/07/29 01:57:51;;;;;;;3.67;1.87;;;;;;;;;;5076615;28;20196;-67
2022/07/29 02:00:18;;;;;;;2.37;2.10;;;;;;;;;;5076255;28;20202;-67
2022/07/29 02:02:44;;;;;;;3.50;1.93;;;;;;;;;;5074711;28;20666;-67
2022/07/29 02:05:11;;;;;;;3.83;1.90;;;;;;;;;;5076365;28;20173;-67
2022/07/29 02:07:38;;;;;;;2.23;1.70;;;;;;;;;;5076701;28;20173;-67
2022/07/29 02:10:05;;;;;;;5.93;1.80;;;;;;;;;;5076071;28;20182;-67
2022/07/29 02:12:32;;;;;;;2.70;1.53;;;;;;;;;;5074819;28;20190;-67
2022/07/29 02:15:00;;;;;;;2.47;1.70;;;;;;;;;;5076187;28;20205;-67
2022/07/29 02:17:31;;;;;;;3.27;1.70;;;;;;;;;;5075844;28;20182;-66
2022/07/29 02:19:59;;;;;;;3.33;1.90;;;;;;;;;;5076012;28;20284;-67
2022/07/29 02:22:26;;;;;;;4.27;1.70;;;;;;;;;;5074555;28;20638;-66
2022/07/29 02:24:53;;;;;;;2.83;1.73;;;;;;;;;;5075829;28;20192;-68
2022/07/29 02:27:20;;;;;;;3.93;1.77;;;;;;;;;;5074328;28;20205;-67
2022/07/29 02:29:47;;;;;;;2.20;1.97;;;;;;;;;;5075765;28;20177;-68
2022/07/29 02:32:14;;;;;;;6.97;2.33;;;;;;;;;;5074486;28;20204;-68
2022/07/29 02:34:40;;;;;;;2.77;1.80;;;;;;;;;;5074258;28;20201;-68
2022/07/29 02:37:07;;;;;;;4.67;1.90;;;;;;;;;;5075578;28;20249;-68
2022/07/29 02:39:34;;;;;;;2.43;1.63;;;;;;;;;;5075782;28;20182;-68
2022/07/29 02:42:08;;;;;;;2.73;1.60;;;;;;;;;;5075724;28;20177;-68
2022/07/29 02:44:34;;;;;;;4.53;1.53;;;;;;;;;;5074082;28;20202;-68
2022/07/29 02:47:03;;;;;;;3.73;1.80;;;;;;;;;;5075454;28;20178;-67
2022/07/29 02:49:35;;;;;;;5.50;1.73;;;;;;;;;;5075434;28;20178;-67
2022/07/29 02:52:03;;;;;;;4.27;1.80;;;;;;;;;;5074073;28;20185;-68
2022/07/29 02:54:35;;;;;;;2.40;1.53;;;;;;;;;;5075212;28;20205;-68
2022/07/29 02:57:04;;;;;;;1.73;1.50;;;;;;;;;;5075175;28;20181;-68
2022/07/29 02:59:31;;;;;;;5.77;1.80;;;;;;;;;;5073836;28;20182;-68
2022/07/29 03:01:58;;;;;;;2.93;1.60;;;;;;;;;;5073826;28;20220;-68
2022/07/29 03:04:25;;;;;;;2.87;1.70;;;;;;;;;;5074897;28;20597;-68
2022/07/29 03:06:51;;;;;;;3.33;1.70;;;;;;;;;;5075333;28;20252;-68
2022/07/29 03:09:18;;;;;;;6.17;1.93;;;;;;;;;;5075554;28;20306;-68
2022/07/29 03:11:44;;;;;;;3.53;1.53;;;;;;;;;;5075092;28;20220;-67
2022/07/29 03:14:10;;;;;;;3.50;1.70;;;;;;;;;;5073987;28;20193;-68
2022/07/29 03:16:36;;;;;;;4.73;1.77;;;;;;;;;;5073768;28;20646;-68
2022/07/29 03:19:03;;;;;;;8.33;1.67;;;;;;;;;;5074719;28;20177;-68
2022/07/29 03:21:29;;;;;;;4.67;1.87;;;;;;;;;;5074743;28;20292;-68
2022/07/29 03:23:55;;;;;;;3.80;1.50;;;;;;;;;;5073380;28;20197;-68
2022/07/29 03:26:21;;;;;;;3.40;1.87;;;;;;;;;;5074851;28;20174;-68
2022/07/29 03:28:47;;;;;;;2.30;1.77;;;;;;;;;;5074622;28;20256;-68
2022/07/29 03:31:13;;;;;;;2.37;1.80;;;;;;;;;;5074560;28;20182;-68
2022/07/29 03:33:39;;;;;;;2.37;1.63;;;;;;;;;;5073132;28;20581;-68
2022/07/29 03:36:05;;;;;;;4.07;1.80;;;;;;;;;;5074482;28;20316;-68
2022/07/29 03:38:33;;;;;;;2.77;1.90;;;;;;;;;;5074031;28;20185;-68
2022/07/29 03:41:02;;;;;;;5.17;1.93;;;;;;;;;;5074207;28;20205;-67
2022/07/29 03:43:30;;;;;;;3.30;1.60;;;;;;;;;;5074211;28;20224;-68
2022/07/29 03:45:58;;;;;;;3.53;1.87;;;;;;;;;;5072931;28;20641;-68
2022/07/29 03:48:24;;;;;;;3.93;2.13;;;;;;;;;;5074184;28;20208;-67
2022/07/29 03:50:51;;;;;;;5.13;1.87;;;;;;;;;;5072837;28;20646;-68
2022/07/29 03:53:17;;;;;;;3.43;2.00;;;;;;;;;;5074191;28;20206;-68
2022/07/29 03:55:47;;;;;;;3.73;1.70;;;;;;;;;;5072782;28;20286;-67
2022/07/29 03:58:14;;;;;;;4.47;1.63;;;;;;;;;;5074068;28;20541;-68
2022/07/29 04:00:40;;;;;;;1.90;1.63;;;;;;;;;;5072586;28;20209;-68
2022/07/29 04:03:06;;;;;;;2.43;1.70;;;;;;;;;;5074071;28;20205;-68
2022/07/29 04:05:32;;;;;;;2.87;2.17;;;;;;;;;;5073872;28;20178;-68
2022/07/29 04:07:58;;;;;;;4.53;2.00;;;;;;;;;;5073886;28;20166;-68
2022/07/29 04:10:24;;;;;;;3.33;1.90;;;;;;;;;;5074239;28;20180;-68
2022/07/29 04:12:50;;;;;;;3.77;2.00;;;;;;;;;;5073923;28;20659;-68
2022/07/29 04:15:16;;;;;;;3.13;2.07;;;;;;;;;;5072532;28;20562;-68
2022/07/29 04:17:42;;;;;;;3.10;2.10;;;;;;;;;;5073914;28;20540;-68
2022/07/29 04:20:08;;;;;;;6.60;2.47;;;;;;;;;;5073547;28;20615;-69
2022/07/29 04:22:34;;;;;;;4.97;2.67;;;;;;;;;;5073533;28;20177;-68
2022/07/29 04:25:00;;;;;;;3.37;2.60;;;;;;;;;;5073820;28;20177;-68
2022/07/29 04:27:26;;;;;;;6.40;3.05;;;;;;;;;;5073532;28;20545;-68
2022/07/29 04:29:52;;;;;;;7.23;3.20;;;;;;;;;;5072930;28;20467;-68
2022/07/29 04:32:18;;;;;;;4.40;2.97;;;;;;;;;;5073493;28;20188;-68
2022/07/29 04:34:46;;;;;;;5.10;2.80;;;;;;;;;;5072100;28;20198;-68
2022/07/29 04:37:12;;;;;;;4.23;2.97;;;;;;;;;;5073397;28;20545;-69
2022/07/29 04:39:38;;;;;;;4.80;3.10;;;;;;;;;;5073893;28;20174;-68
2022/07/29 04:42:04;;;;;;;3.80;3.20;;;;;;;;;;5073492;28;20173;-68
2022/07/29 04:44:30;;;;;;;7.00;3.77;;;;;;;;;;5071930;28;20194;-68
2022/07/29 04:46:57;;;;;;;4.27;3.40;;;;;;;;;;5072080;28;20665;-68
2022/07/29 04:49:23;;;;;;;4.80;3.40;;;;;;;;;;5073259;28;20173;-68
2022/07/29 04:51:49;;;;;;;6.17;3.37;;;;;;;;;;5072652;28;20178;-69
2022/07/29 04:54:15;;;;;;;8.23;3.27;;;;;;;;;;5071930;28;20280;-69
2022/07/29 04:56:41;;;;;;;4.90;3.90;;;;;;;;;;5073190;28;20182;-67
2022/07/29 04:59:07;;;;;;;11.40;3.73;;;;;;;;;;5073440;28;20261;-68
2022/07/29 05:01:33;;;;;;;4.17;3.53;;;;;;;;;;5073063;28;20288;-68
2022/07/29 05:03:59;;;;;;;4.70;3.47;;;;;;;;;;5072830;28;20213;-68
2022/07/29 05:06:25;;;;;;;6.40;4.40;;;;;;;;;;5071768;28;20557;-68
2022/07/29 05:08:51;;;;;;;7.63;4.60;;;;;;;;;;5073375;28;20176;-67
2022/07/29 05:11:17;;;;;;;6.07;4.03;;;;;;;;;;5073333;28;20178;-68
2022/07/29 05:13:43;;;;;;;5.37;3.97;;;;;;;;;;5072875;28;20243;-67
2022/07/29 05:16:09;;;;;;;5.87;3.97;;;;;;;;;;5073201;28;20174;-69
2022/07/29 05:18:35;;;;;;;7.07;3.93;;;;;;;;;;5072976;28;20204;-67
2022/07/29 05:21:01;;;;;;;7.67;4.00;;;;;;;;;;5071636;28;20661;-67
2022/07/29 05:23:27;;;;;;;7.53;4.03;;;;;;;;;;5073452;28;20593;-69
2022/07/29 05:25:52;;;;;;;5.43;3.63;;;;;;;;;;5072982;28;20261;-67
2022/07/29 05:28:18;;;;;;;7.77;4.60;;;;;;;;;;5072909;28;20177;-67
2022/07/29 05:30:44;;;;;;;4.50;3.80;;;;;;;;;;5072889;28;20182;-67
2022/07/29 05:33:10;;;;;;;8.33;4.17;;;;;;;;;;5071420;28;20205;-67
2022/07/29 05:35:37;;;;;;;6.73;3.60;;;;;;;;;;5073315;28;20704;-67
2022/07/29 05:38:03;;;;;;;4.10;3.57;;;;;;;;;;5072813;28;20213;-67
2022/07/29 05:40:29;;;;;;;6.07;3.60;;;;;;;;;;5071394;28;20212;-67
2022/07/29 05:42:55;;;;;;;7.57;3.20;;;;;;;;;;5072661;28;20196;-67
2022/07/29 05:45:21;;;;;;;6.17;3.67;;;;;;;;;;5071381;28;20182;-67
2022/07/29 05:47:47;;;;;;;4.53;3.23;;;;;;;;;;5071404;28;20177;-67
2022/07/29 05:50:13;;;;;;;7.97;3.07;;;;;;;;;;5071435;28;20243;-67
2022/07/29 05:52:39;;;;;;;4.97;3.03;;;;;;;;;;5073121;28;20278;-67
2022/07/29 05:55:05;;;;;;;5.47;2.90;;;;;;;;;;5072666;28;20227;-68
2022/07/29 05:57:31;;;;;;;3.67;3.00;;;;;;;;;;5071319;28;20186;-68
2022/07/29 05:59:57;;;;;;;5.97;3.20;;;;;;;;;;5071313;28;20583;-68
2022/07/29 06:02:23;;;;;;;4.70;2.87;;;;;;;;;;5074219;28;20193;-68
2022/07/29 06:04:49;;;;;;;6.20;3.10;;;;;;;;;;5076100;28;20592;-68
2022/07/29 06:07:16;;;;;;;6.83;3.37;;;;;;;;;;5076431;28;20223;-67
2022/07/29 06:09:42;;;;;;;6.60;3.87;;;;;;;;;;5076040;28;20173;-68
2022/07/29 06:12:08;;;;;;;6.50;2.80;;;;;;;;;;5076078;28;20181;-68
2022/07/29 06:14:35;;;;;;;6.27;2.67;;;;;;;;;;5076189;28;20280;-68
2022/07/29 06:17:00;;;;;;;4.67;3.23;;;;;;;;;;5076525;28;20170;-68
2022/07/29 06:19:26;;;;;;;4.90;2.73;;;;;;;;;;5075998;28;20189;-68
2022/07/29 06:21:52;;;;;;;5.07;2.93;;;;;;;;;;5076208;28;20281;-68
2022/07/29 06:24:18;;;;;;;8.87;3.13;;;;;;;;;;5074514;28;20669;-68
2022/07/29 06:26:44;;;;;;;5.67;2.50;;;;;;;;;;5075792;28;20206;-68
2022/07/29 06:29:10;;;;;;;3.40;2.93;;;;;;;;;;5074538;28;20178;-68
2022/07/29 06:31:37;;;;;;;4.40;3.00;;;;;;;;;;5075837;28;20182;-68
2022/07/29 06:34:03;;;;;;;5.07;3.03;;;;;;;;;;5075667;28;20221;-68
2022/07/29 06:36:29;;;;;;;6.63;2.77;;;;;;;;;;5075608;28;20184;-68
2022/07/29 06:38:55;;;;;;;5.07;2.90;;;;;;;;;;5075647;28;20197;-68
2022/07/29 06:41:22;;;;;;;4.87;2.87;;;;;;;;;;5075800;28;20661;-69
2022/07/29 06:43:49;;;;;;;5.90;2.73;;;;;;;;;;5074114;28;20670;-68
2022/07/29 06:46:17;;;;;;;5.90;3.30;;;;;;;;;;5075596;28;20638;-68
2022/07/29 06:48:43;;;;;;;5.50;2.83;;;;;;;;;;5075714;28;20181;-68
2022/07/29 06:51:09;;;;;;;6.17;2.87;;;;;;;;;;5074455;28;20239;-68
2022/07/29 06:53:36;;;;;;;5.30;3.10;;;;;;;;;;5075316;28;20228;-68
2022/07/29 06:56:05;;;;;;;4.80;2.90;;;;;;;;;;5075325;28;20181;-70
2022/07/29 06:58:31;;;;;;;8.43;3.37;;;;;;;;;;5075500;28;20182;-68
2022/07/29 07:00:57;;;;;;;4.53;3.07;;;;;;;;;;5075692;28;20197;-68
2022/07/29 07:03:23;;;;;;;5.03;3.07;;;;;;;;;;5075462;28;20225;-68
2022/07/29 07:05:49;;;;;;;4.27;2.80;;;;;;;;;;5075309;28;20217;-69
2022/07/29 07:08:16;;;;;;;8.73;3.63;;;;;;;;;;5075260;28;20544;-68
2022/07/29 07:10:42;;;;;;;5.93;3.03;;;;;;;;;;5073914;28;20204;-68
2022/07/29 07:13:08;;;;;;;4.53;3.23;;;;;;;;;;5073829;28;20689;-68
2022/07/29 07:15:34;;;;;;;5.90;3.37;;;;;;;;;;5077329;28;20251;-69
2022/07/29 07:18:00;;;;;;;4.10;3.33;;;;;;;;;;5075267;28;20177;-68
2022/07/29 07:20:26;;;;;;;5.53;3.70;;;;;;;;;;5075094;28;20555;-69
2022/07/29 07:22:52;;;;;;;5.93;3.20;;;;;;;;;;5074200;28;20202;-68
2022/07/29 07:25:18;;;;;;;6.30;3.23;;;;;;;;;;5073442;28;20184;-69
2022/07/29 07:27:46;;;;;;;7.97;3.60;;;;;;;;;;5074856;28;20185;-69
2022/07/29 07:30:13;;;;;;;5.00;3.20;;;;;;;;;;5073389;28;20181;-69
2022/07/29 07:32:39;;;;;;;4.63;3.27;;;;;;;;;;5074518;28;20185;-68
2022/07/29 07:35:06;;;;;;;6.33;3.37;;;;;;;;;;5075119;28;20626;-69
2022/07/29 07:37:32;;;;;;;6.27;4.53;;;;;;;;;;5073031;28;20673;-69
2022/07/29 07:39:58;;;;;;;6.93;4.30;;;;;;;;;;5075139;28;20185;-68
2022/07/29 07:42:24;;;;;;;8.43;4.83;;;;;;;;;;5074645;28;20177;-67
2022/07/29 07:44:50;;;;;;;6.77;4.20;;;;;;;;;;5074926;28;20184;-68
2022/07/29 07:47:19;;;;;;;7.77;4.87;;;;;;;;;;5072981;28;20181;-68
2022/07/29 07:49:46;;;;;;;7.40;4.80;;;;;;;;;;5074254;28;20247;-68
2022/07/29 07:52:12;;;;;;;9.77;4.90;;;;;;;;;;5073054;28;20182;-68
2022/07/29 07:54:38;;;;;;;7.83;4.87;;;;;;;;;;5074597;28;20696;-68
2022/07/29 07:57:04;;;;;;;8.93;4.90;;;;;;;;;;5074075;28;20208;-68
2022/07/29 07:59:30;;;;;;;7.03;4.77;;;;;;;;;;5074363;28;20235;-68
2022/07/29 08:01:56;;;;;;;8.03;4.70;;;;;;;;;;5074192;28;20243;-68
2022/07/29 08:04:22;;;;;;;8.40;4.80;;;;;;;;;;5073825;28;20210;-68
2022/07/29 08:06:49;;;;;;;11.20;5.20;;;;;;;;;;5074074;28;20174;-68
2022/07/29 08:09:15;;;;;;;8.20;5.23;;;;;;;;;;5074379;28;20228;-68
2022/07/29 08:11:41;;;;;;;8.77;4.93;;;;;;;;;;5073903;28;20230;-68
2022/07/29 08:14:07;;;;;;;12.77;5.30;;;;;;;;;;5074378;28;20202;-68
2022/07/29 08:16:33;;;;;;;10.43;5.60;;;;;;;;;;5072540;28;20182;-68
2022/07/29 08:18:59;;;;;;;6.20;5.37;;;;;;;;;;5073918;28;20710;-68
2022/07/29 08:21:25;;;;;;;8.93;6.20;;;;;;;;;;5073624;28;20242;-68
2022/07/29 08:24:42;;;;;;;9.23;5.40;;;;;;;;;;5074240;28;20191;-68
2022/07/29 08:26:41;;;;;;;8.43;5.70;;;;;;;;;;5073474;28;20200;-68
2022/07/29 08:29:08;;;;;;;9.17;5.40;;;;;;;;;;5072350;28;20178;-68
2022/07/29 08:31:33;;;;;;;9.83;6.50;;;;;;;;;;5074138;28;20589;-68
2022/07/29 08:33:59;;;;;;;8.53;6.27;;;;;;;;;;5073375;28;20202;-69
2022/07/29 08:36:26;;;;;;;12.87;6.10;;;;;;;;;;5073463;28;20182;-68
2022/07/29 08:38:52;;;;;;;8.47;6.27;;;;;;;;;;5073882;28;20174;-68
2022/07/29 08:41:19;;;;;;;9.77;6.27;;;;;;;;;;5073885;28;20208;-68
2022/07/29 08:43:45;;;;;;;15.87;7.90;;;;;;;;;;5073265;28;20198;-68
2022/07/29 08:46:11;;;;;;;9.87;7.17;;;;;;;;;;5071970;28;20272;-68
2022/07/29 08:48:37;;;;;;;13.70;7.53;;;;;;;;;;5073381;28;20212;-68
2022/07/29 08:51:03;;;;;;;13.73;8.20;;;;;;;;;;5073252;28;20262;-68
2022/07/29 08:53:29;;;;;;;10.33;7.70;;;;;;;;;;5071926;28;20202;-68
2022/07/29 08:55:55;;;;;;;17.20;7.87;;;;;;;;;;5073192;28;20205;-68
2022/07/29 08:58:22;;;;;;;15.63;7.80;;;;;;;;;;5073168;28;20174;-68
2022/07/29 09:00:51;;;;;;;12.23;6.83;;;;;;;;;;5073336;28;20197;-68
2022/07/29 09:03:21;;;;;;;11.37;6.47;;;;;;;;;;5072959;28;20236;-67
2022/07/29 09:05:47;;;;;;;11.10;6.03;;;;;;;;;;5073199;28;20197;-67
2022/07/29 09:08:14;;;;;;;8.03;5.80;;;;;;;;;;5073143;28;20182;-67
2022/07/29 09:10:40;;;;;;;8.63;6.07;;;;;;;;;;5071727;28;20189;-68
2022/07/29 09:13:06;;;;;;;11.73;5.67;;;;;;;;;;5071711;28;20619;-67
2022/07/29 09:15:32;;;;;;;8.20;5.70;;;;;;;;;;5071645;28;20181;-68
2022/07/29 09:17:59;;;;;;;10.57;5.13;;;;;;;;;;5072810;28;20178;-68
2022/07/29 09:20:25;;;;;;;7.30;5.03;;;;;;;;;;5073348;28;20599;-68
2022/07/29 09:22:53;;;;;;;9.27;4.97;;;;;;;;;;5072995;28;20273;-68
2022/07/29 09:25:39;;;;;;;6.00;4.97;;;;;;;;;;5071579;28;20264;-68
2022/07/29 09:28:08;;;;;;;10.20;5.77;;;;;;;;;;5073079;28;20178;-68
2022/07/29 09:30:35;;;;;;;7.33;5.10;;;;;;;;;;5072898;28;20185;-68
2022/07/29 09:33:02;;;;;;;8.10;5.40;;;;;;;;;;5071414;28;20204;-68
2022/07/29 09:35:29;;;;;;;8.17;4.90;;;;;;;;;;5073003;28;20174;-68
2022/07/29 09:37:56;;;;;;;9.47;5.27;;;;;;;;;;5075845;28;20179;-68
2022/07/29 09:40:23;;;;;;;6.33;5.20;;;;;;;;;;5077076;28;20202;-68
2022/07/29 09:42:49;;;;;;;8.30;5.00;;;;;;;;;;5075469;28;20198;-68
2022/07/29 09:45:34;;;;;;;9.73;5.53;;;;;;;;;;5076558;28;20208;-68
2022/07/29 09:48:13;;;;;;;8.37;5.03;;;;;;;;;;5076959;28;20241;-68
2022/07/29 09:50:40;;;;;;;8.07;5.20;;;;;;;;;;5076758;28;20181;-68
2022/07/29 09:53:06;;;;;;;7.97;5.53;;;;;;;;;;5076407;28;20285;-68
2022/07/29 09:55:32;;;;;;;8.40;5.40;;;;;;;;;;5075146;28;20182;-67
2022/07/29 09:58:17;;;;;;;13.43;5.60;;;;;;;;;;5076433;28;20294;-67
2022/07/29 10:00:43;;;;;;;6.10;4.73;;;;;;;;;;5099071;22;20249;-69
2022/07/29 10:03:09;;;;;;;5.10;4.70;;;;;;;;;;5077158;28;20249;-69
2022/07/29 10:05:35;;;;;;;5.87;4.80;;;;;;;;;;5077123;28;20229;-68
2022/07/29 10:08:01;;;;;;;7.10;4.50;;;;;;;;;;5075595;28;20178;-68
2022/07/29 10:10:29;;;;;;;11.27;5.00;;;;;;;;;;5075514;28;20198;-69
2022/07/29 10:12:56;;;;;;;10.37;4.90;;;;;;;;;;5075366;28;20186;-68
2022/07/29 10:15:25;;;;;;;9.57;5.47;;;;;;;;;;5076791;28;20189;-68
2022/07/29 10:17:52;;;;;;;5.63;5.00;;;;;;;;;;5076769;28;20256;-69
2022/07/29 10:20:19;;;;;;;5.20;4.30;;;;;;;;;;5075211;28;20214;-68
2022/07/29 10:22:46;;;;;;;13.67;5.43;;;;;;;;;;5076531;28;20173;-68
2022/07/29 10:25:12;;;;;;;8.50;6.23;;;;;;;;;;5077143;28;20201;-68
2022/07/29 10:27:39;;;;;;;9.90;6.07;;;;;;;;;;5076709;28;20213;-68
2022/07/29 10:30:05;;;;;;;10.07;6.00;;;;;;;;;;5075166;28;20174;-68
2022/07/29 10:32:53;;;;;;;8.53;6.07;;;;;;;;;;5076533;28;20177;-69
2022/07/29 10:35:22;;;;;;;10.70;5.50;;;;;;;;;;5075337;28;20174;-69
2022/07/29 10:37:52;;;;;;;8.23;5.20;;;;;;;;;;5076843;28;20212;-70
2022/07/29 10:43:22;;;;;;;8.50;4.40;;;;;;;;;;5076577;28;20706;-68
2022/07/29 10:45:49;;;;;;;8.93;4.67;;;;;;;;;;5075847;28;20166;-68
2022/07/29 10:48:15;;;;;;;9.10;5.07;;;;;;;;;;5074833;28;20299;-68
2022/07/29 10:51:02;;;;;;;10.87;4.97;;;;;;;;;;5076328;28;20292;-68
2022/07/29 10:53:47;;;;;;;6.60;4.50;;;;;;;;;;5076441;28;20173;-66
2022/07/29 10:56:30;;;;;;;14.17;4.50;;;;;;;;;;5074929;28;20195;-68
2022/07/29 10:59:14;;;;;;;7.20;5.37;;;;;;;;;;5074776;28;20277;-68
2022/07/29 11:01:40;;;;;;;4.67;4.13;;;;;;;;;;5075819;28;20222;-68
2022/07/29 11:04:06;;;;;;;7.27;4.17;;;;;;;;;;5076019;28;20219;-68
2022/07/29 11:06:51;;;;;;;7.37;4.73;;;;;;;;;;5074418;28;20178;-68
2022/07/29 11:09:18;;;;;;;6.50;4.20;;;;;;;;;;5075867;28;20652;-69
2022/07/29 11:11:45;;;;;;;6.63;4.50;;;;;;;;;;5076055;28;20198;-68
2022/07/29 11:14:11;;;;;;;7.07;4.20;;;;;;;;;;5075936;28;20606;-69
2022/07/29 11:17:07;;;;;;;9.70;5.67;;;;;;;;;;5075652;28;20178;-68
2022/07/29 11:19:34;;;;;;;6.17;4.20;;;;;;;;;;5071161;28;20186;-68
2022/07/29 11:22:00;;;;;;;6.87;4.60;;;;;;;;;;5075095;28;20209;-68
2022/07/29 11:24:28;;;;;;;7.30;4.70;;;;;;;;;;5075804;28;20177;-68
2022/07/29 11:27:07;;;;;;;6.23;4.43;;;;;;;;;;5074000;28;20181;-68
2022/07/29 11:29:33;;;;;;;9.53;4.53;;;;;;;;;;5075434;28;20223;-68
2022/07/29 11:32:09;;;;;;;8.70;4.60;;;;;;;;;;5075019;28;20198;-68
2022/07/29 11:34:36;;;;;;;11.60;4.90;;;;;;;;;;5075028;28;20182;-68
2022/07/29 11:37:05;;;;;;;4.93;4.13;;;;;;;;;;5073591;28;20182;-68
2022/07/29 11:39:31;;;;;;;7.57;5.07;;;;;;;;;;5073688;28;20185;-68
2022/07/29 11:42:16;;;;;;;5.10;4.60;;;;;;;;;;5073555;28;20643;-68
2022/07/29 11:45:05;;;;;;;7.70;4.30;;;;;;;;;;5073568;28;20173;-68
2022/07/29 11:47:31;;;;;;;6.20;4.03;;;;;;;;;;5073635;28;20174;-70
2022/07/29 11:49:58;;;;;;;7.10;4.30;;;;;;;;;;5075278;28;20271;-69
2022/07/29 11:52:24;;;;;;;7.87;4.37;;;;;;;;;;5074896;28;20264;-69
2022/07/29 11:54:51;;;;;;;3.97;3.53;;;;;;;;;;5074610;28;20645;-68
2022/07/29 11:57:17;;;;;;;9.03;3.70;;;;;;;;;;5074885;28;20184;-68
2022/07/29 11:59:44;;;;;;;6.07;3.40;;;;;;;;;;5074518;28;20326;-68
2022/07/29 12:02:11;;;;;;;6.33;3.93;;;;;;;;;;5074279;28;20217;-68
2022/07/29 12:04:52;;;;;;;4.80;3.90;;;;;;;;;;5074512;28;20261;-68
2022/07/29 12:07:19;;;;;;;4.63;3.70;;;;;;;;;;5073272;28;20268;-69
2022/07/29 12:09:52;;;;;;;6.67;3.40;;;;;;;;;;5073067;28;20266;-69
2022/07/29 12:12:18;;;;;;;5.13;3.13;;;;;;;;;;5073039;28;20288;-68
2022/07/29 12:14:47;;;;;;;4.83;2.80;;;;;;;;;;5072927;28;20178;-69
2022/07/29 12:17:29;;;;;;;5.03;3.27;;;;;;;;;;5074484;28;20652;-69
2022/07/29 12:19:56;;;;;;;5.80;3.50;;;;;;;;;;5074008;28;20173;-69
2022/07/29 12:22:40;;;;;;;5.73;3.50;;;;;;;;;;5074136;28;20181;-69
2022/07/29 12:25:10;;;;;;;5.37;2.60;;;;;;;;;;5072830;28;20204;-69
2022/07/29 12:27:38;;;;;;;4.17;3.27;;;;;;;;;;5072533;28;20178;-69
2022/07/29 12:30:07;;;;;;;7.40;3.40;;;;;;;;;;5074191;28;20199;-69
2022/07/29 12:32:37;;;;;;;6.97;2.97;;;;;;;;;;5074748;28;20211;-71
2022/07/29 12:35:08;;;;;;;7.00;3.10;;;;;;;;;;5074651;28;20174;-69
2022/07/29 12:37:35;;;;;;;5.40;3.57;;;;;;;;;;5074396;28;20236;-69
2022/07/29 12:40:01;;;;;;;4.70;3.10;;;;;;;;;;5072586;28;20264;-68
2022/07/29 12:42:27;;;;;;;4.83;3.43;;;;;;;;;;5072491;28;20182;-68
2022/07/29 12:44:53;;;;;;;5.17;2.53;;;;;;;;;;5074117;28;20265;-68
2022/07/29 12:47:20;;;;;;;3.70;2.60;;;;;;;;;;5072519;28;20182;-69
2022/07/29 12:49:46;;;;;;;3.23;2.50;;;;;;;;;;5073751;28;20178;-69
2022/07/29 12:52:29;;;;;;;5.30;2.87;;;;;;;;;;5073571;28;20287;-70
2022/07/29 12:54:55;;;;;;;4.27;2.90;;;;;;;;;;5073859;28;20177;-69
2022/07/29 12:57:22;;;;;;;4.97;3.10;;;;;;;;;;5073873;28;20192;-69
2022/07/29 13:00:15;;;;;;;5.57;3.00;;;;;;;;;;5073808;28;20234;-69
2022/07/29 13:02:43;;;;;;;10.13;3.43;;;;;;;;;;5073599;28;20181;-69
2022/07/29 13:05:10;;;;;;;2.83;2.53;;;;;;;;;;5074023;28;20315;-69
2022/07/29 13:07:36;;;;;;;4.93;2.80;;;;;;;;;;5073783;28;20185;-69
2022/07/29 13:10:16;;;;;;;5.27;2.97;;;;;;;;;;5074045;28;20222;-70
2022/07/29 13:13:00;;;;;;;5.50;3.10;;;;;;;;;;5076183;28;20180;-69
2022/07/29 13:15:27;;;;;;;4.63;2.73;;;;;;;;;;5076289;28;20734;-69
2022/07/29 13:17:53;;;;;;;4.00;2.50;;;;;;;;;;5076395;28;20311;-69
2022/07/29 13:20:19;;;;;;;5.30;3.10;;;;;;;;;;5077281;28;20292;-69
2022/07/29 13:22:48;;;;;;;7.30;2.87;;;;;;;;;;5077640;28;20185;-69
2022/07/29 13:25:14;;;;;;;5.97;3.30;;;;;;;;;;5077602;28;20706;-69
2022/07/29 13:27:40;;;;;;;5.00;2.80;;;;;;;;;;5077483;28;20181;-69
2022/07/29 13:30:07;;;;;;;8.13;3.50;;;;;;;;;;5076132;28;20184;-69
2022/07/29 13:32:37;;;;;;;3.93;2.87;;;;;;;;;;5078166;28;20219;-70
2022/07/29 13:35:05;;;;;;;9.17;3.13;;;;;;;;;;5078413;28;20649;-69
2022/07/29 13:37:32;;;;;;;4.93;3.47;;;;;;;;;;5079662;28;20174;-69
2022/07/29 13:39:59;;;;;;;4.67;3.80;;;;;;;;;;5079781;28;20166;-68
2022/07/29 13:42:25;;;;;;;4.87;3.13;;;;;;;;;;5080626;28;20223;-69
2022/07/29 13:44:51;;;;;;;5.30;3.13;;;;;;;;;;5079236;28;20170;-68
2022/07/29 13:47:18;;;;;;;5.30;3.70;;;;;;;;;;5077015;28;20257;-68
2022/07/29 13:49:43;;;;;;;5.10;3.40;;;;;;;;;;5075725;28;20230;-69
2022/07/29 13:52:09;;;;;;;5.40;3.93;;;;;;;;;;5077505;28;20198;-68
2022/07/29 13:54:37;;;;;;;5.30;3.57;;;;;;;;;;5076254;28;20213;-68
2022/07/29 13:57:03;;;;;;;7.43;3.80;;;;;;;;;;5077142;28;20174;-69
2022/07/29 13:59:29;;;;;;;4.30;3.37;;;;;;;;;;5076897;28;20237;-68
2022/07/29 14:01:55;;;;;;;6.93;3.20;;;;;;;;;;5076713;28;20304;-69
2022/07/29 14:04:22;;;;;;;6.13;3.67;;;;;;;;;;5077137;28;20216;-69
2022/07/29 14:06:49;;;;;;;4.60;3.53;;;;;;;;;;5075570;28;20181;-68
2022/07/29 14:09:15;;;;;;;5.83;4.00;;;;;;;;;;5077383;28;20269;-69
2022/07/29 14:11:41;;;;;;;5.30;4.13;;;;;;;;;;5076658;28;20209;-68
2022/07/29 14:14:07;;;;;;;7.00;4.23;;;;;;;;;;5075306;28;20219;-68
2022/07/29 14:16:33;;;;;;;8.63;4.77;;;;;;;;;;5076580;28;20209;-68
2022/07/29 14:18:59;;;;;;;7.23;3.43;;;;;;;;;;5075187;28;20186;-68
2022/07/29 14:21:25;;;;;;;5.43;3.77;;;;;;;;;;5076333;28;20276;-69
2022/07/29 14:23:52;;;;;;;4.60;3.47;;;;;;;;;;5076056;28;20174;-68
2022/07/29 14:26:18;;;;;;;6.90;3.33;;;;;;;;;;5075004;28;20268;-67
2022/07/29 14:28:44;;;;;;;4.03;3.27;;;;;;;;;;5076623;28;20676;-68
2022/07/29 14:31:10;;;;;;;6.87;3.43;;;;;;;;;;5076134;28;20267;-69
2022/07/29 14:33:36;;;;;;;5.13;2.90;;;;;;;;;;5076358;28;20271;-70
2022/07/29 14:36:02;;;;;;;6.80;2.80;;;;;;;;;;5074797;28;20642;-69
2022/07/29 14:38:28;;;;;;;4.60;2.37;;;;;;;;;;5076266;28;20174;-68
2022/07/29 14:40:54;;;;;;;3.57;2.50;;;;;;;;;;5075717;28;20278;-69
2022/07/29 14:43:20;;;;;;;4.97;2.83;;;;;;;;;;5076353;28;20280;-68
2022/07/29 14:45:46;;;;;;;3.33;2.73;;;;;;;;;;5076434;28;20182;-68
2022/07/29 14:48:12;;;;;;;4.30;2.83;;;;;;;;;;5074659;28;20216;-68
2022/07/29 14:50:38;;;;;;;6.37;3.10;;;;;;;;;;5076251;28;20204;-69
2022/07/29 14:53:04;;;;;;;7.77;3.40;;;;;;;;;;5074532;28;20275;-68